Time,TemperatureF,DewpointF,PressureIn,WindDirection,WindDirectionDegrees,WindSpeedMPH,WindSpeedGustMPH,Humidity,HourlyPrecipIn,Conditions,Clouds,dailyrainin,SolarRadiationWatts/m^2,SoftwareType,DateUTC
2013-11-25 00:22:00,31.0,26.0,-100.00,West,261,11.0,19.0,80,0.00,,,0.00,19.000000,,2013-11-25 06:22:00,
2013-11-25 00:32:00,31.0,26.0,-100.00,West,261,11.0,19.0,80,0.00,,,0.00,19.000000,,2013-11-25 06:32:00,
2013-11-25 00:42:00,31.0,26.0,-100.00,West,261,11.0,19.0,80,0.00,,,0.00,19.000000,,2013-11-25 06:42:00,
2013-11-25 00:52:00,31.0,26.0,-100.00,West,261,11.0,19.0,80,0.00,,,0.00,19.000000,,2013-11-25 06:52:00,
2013-11-25 01:21:00,31.0,27.0,-100.00,West,275,12.0,15.0,84,0.00,,,0.00,15.000000,,2013-11-25 07:21:00,
2013-11-25 01:32:00,31.0,27.0,-100.00,West,275,12.0,15.0,84,0.00,,,0.00,15.000000,,2013-11-25 07:32:00,
2013-11-25 01:42:00,31.0,27.0,-100.00,West,275,12.0,15.0,84,0.00,,,0.00,15.000000,,2013-11-25 07:42:00,
2013-11-25 01:52:00,31.0,27.0,-100.00,West,275,12.0,15.0,84,0.00,,,0.00,15.000000,,2013-11-25 07:52:00,
2013-11-25 02:22:00,29.0,26.0,-100.00,WNW,297,11.0,19.0,90,0.00,,,0.00,15.000000,,2013-11-25 08:22:00,
2013-11-25 02:32:00,29.0,26.0,-100.00,WNW,297,11.0,19.0,90,0.00,,,0.00,15.000000,,2013-11-25 08:32:00,
2013-11-25 02:42:00,29.0,26.0,-100.00,WNW,297,11.0,19.0,90,0.00,,,0.00,15.000000,,2013-11-25 08:42:00,
2013-11-25 02:52:00,29.0,26.0,-100.00,WNW,297,11.0,19.0,90,0.00,,,0.00,15.000000,,2013-11-25 08:52:00,
2013-11-25 03:22:00,27.0,27.0,-100.00,WNW,293,10.0,14.0,100,0.00,,,0.00,10.000000,,2013-11-25 09:22:00,
2013-11-25 03:33:00,27.0,27.0,-100.00,WNW,293,10.0,14.0,100,0.00,,,0.00,10.000000,,2013-11-25 09:33:00,
2013-11-25 03:43:00,27.0,27.0,-100.00,WNW,293,10.0,14.0,100,0.00,,,0.00,10.000000,,2013-11-25 09:43:00,
2013-11-25 03:53:00,27.0,27.0,-100.00,WNW,293,10.0,14.0,100,0.00,,,0.00,10.000000,,2013-11-25 09:53:00,
2013-11-25 04:23:00,25.0,25.0,-100.00,WNW,292,9.0,12.0,100,0.00,,,0.00,10.000000,,2013-11-25 10:23:00,
2013-11-25 04:34:00,25.0,25.0,-100.00,WNW,292,9.0,12.0,100,0.00,,,0.00,10.000000,,2013-11-25 10:34:00,
2013-11-25 04:42:00,25.0,25.0,-100.00,WNW,292,9.0,12.0,100,0.00,,,0.00,10.000000,,2013-11-25 10:42:00,
2013-11-25 04:53:00,25.0,25.0,-100.00,WNW,292,9.0,12.0,100,0.00,,,0.00,10.000000,,2013-11-25 10:53:00,
2013-11-25 05:22:00,24.0,24.0,-100.00,WNW,282,7.0,11.0,100,0.00,,,0.00,10.000000,,2013-11-25 11:22:00,
2013-11-25 05:33:00,24.0,24.0,-100.00,WNW,282,7.0,11.0,100,0.00,,,0.00,10.000000,,2013-11-25 11:33:00,
2013-11-25 05:43:00,24.0,24.0,-100.00,WNW,282,7.0,11.0,100,0.00,,,0.00,10.000000,,2013-11-25 11:43:00,
2013-11-25 05:52:00,24.0,24.0,-100.00,WNW,282,7.0,11.0,100,0.00,,,0.00,10.000000,,2013-11-25 11:52:00,
2013-11-25 06:22:00,24.0,24.0,-100.00,West,280,11.0,15.0,100,0.00,,,0.00,9.000000,,2013-11-25 12:22:00,
2013-11-25 06:32:00,24.0,24.0,-100.00,West,280,11.0,15.0,100,0.00,,,0.00,9.000000,,2013-11-25 12:32:00,
2013-11-25 06:42:00,24.0,24.0,-100.00,West,280,11.0,15.0,100,0.00,,,0.00,9.000000,,2013-11-25 12:42:00,
2013-11-25 06:52:00,24.0,24.0,-100.00,West,280,11.0,15.0,100,0.00,,,0.00,9.000000,,2013-11-25 12:52:00,
2013-11-25 07:22:00,22.0,22.0,-100.00,WNW,297,9.0,14.0,100,0.00,,,0.00,5.000000,,2013-11-25 13:22:00,
2013-11-25 07:32:00,22.0,22.0,-100.00,WNW,297,9.0,14.0,100,0.00,,,0.00,5.000000,,2013-11-25 13:32:00,
2013-11-25 07:42:00,22.0,22.0,-100.00,WNW,297,9.0,14.0,100,0.00,,,0.00,5.000000,,2013-11-25 13:42:00,
2013-11-25 07:52:00,22.0,22.0,-100.00,WNW,297,9.0,14.0,100,0.00,,,0.00,5.000000,,2013-11-25 13:52:00,
2013-11-25 08:22:00,22.0,22.0,-100.00,NW,304,11.0,15.0,100,0.00,,,0.00,8.000000,,2013-11-25 14:22:00,
2013-11-25 08:32:00,22.0,22.0,-100.00,NW,304,11.0,15.0,100,0.00,,,0.00,8.000000,,2013-11-25 14:32:00,
2013-11-25 08:42:00,22.0,22.0,-100.00,NW,304,11.0,15.0,100,0.00,,,0.00,8.000000,,2013-11-25 14:42:00,
2013-11-25 08:52:00,22.0,22.0,-100.00,NW,304,11.0,15.0,100,0.00,,,0.00,8.000000,,2013-11-25 14:52:00,
2013-11-25 09:22:00,26.0,26.0,-100.00,NW,317,13.0,20.0,100,0.00,,,0.00,51.000000,,2013-11-25 15:22:00,
2013-11-25 09:33:00,26.0,26.0,-100.00,NW,317,13.0,20.0,100,0.00,,,0.00,51.000000,,2013-11-25 15:33:00,
2013-11-25 09:44:00,26.0,26.0,-100.00,NW,317,13.0,20.0,100,0.00,,,0.00,51.000000,,2013-11-25 15:44:00,
2013-11-25 09:54:00,26.0,26.0,-100.00,NW,317,13.0,20.0,100,0.00,,,0.00,51.000000,,2013-11-25 15:54:00,
2013-11-25 10:23:00,28.0,28.0,-100.00,NW,306,13.0,19.0,100,0.00,,,0.00,101.000000,,2013-11-25 16:23:00,
2013-11-25 10:33:00,28.0,28.0,-100.00,NW,306,13.0,19.0,100,0.00,,,0.00,101.000000,,2013-11-25 16:33:00,
2013-11-25 10:43:00,28.0,28.0,-100.00,NW,306,13.0,19.0,100,0.00,,,0.00,101.000000,,2013-11-25 16:43:00,
2013-11-25 10:52:00,28.0,28.0,-100.00,NW,306,13.0,19.0,100,0.00,,,0.00,101.000000,,2013-11-25 16:52:00,
2013-11-25 11:22:00,31.0,31.0,-100.00,NW,312,16.0,22.0,99,0.00,,,0.00,179.000000,,2013-11-25 17:22:00,
2013-11-25 11:33:00,31.0,31.0,-100.00,NW,312,16.0,22.0,99,0.00,,,0.00,179.000000,,2013-11-25 17:33:00,
2013-11-25 11:43:00,31.0,31.0,-100.00,NW,312,16.0,22.0,99,0.00,,,0.00,179.000000,,2013-11-25 17:43:00,
2013-11-25 11:52:00,31.0,31.0,-100.00,NW,312,16.0,22.0,99,0.00,,,0.00,179.000000,,2013-11-25 17:52:00,
2013-11-25 12:22:00,32.0,26.0,-100.00,NW,310,21.0,28.0,79,0.00,,,0.00,157.000000,,2013-11-25 18:22:00,
2013-11-25 12:33:00,32.0,26.0,-100.00,NW,310,21.0,28.0,79,0.00,,,0.00,157.000000,,2013-11-25 18:33:00,
2013-11-25 12:42:00,32.0,26.0,-100.00,NW,310,21.0,28.0,79,0.00,,,0.00,157.000000,,2013-11-25 18:42:00,
2013-11-25 12:52:00,32.0,26.0,-100.00,NW,310,21.0,28.0,79,0.00,,,0.00,157.000000,,2013-11-25 18:52:00,
2013-11-25 13:22:00,32.0,24.0,-100.00,NW,304,22.0,31.0,72,0.00,,,0.00,142.000000,,2013-11-25 19:22:00,
2013-11-25 13:32:00,32.0,24.0,-100.00,NW,304,22.0,31.0,72,0.00,,,0.00,142.000000,,2013-11-25 19:32:00,
2013-11-25 13:42:00,32.0,24.0,-100.00,NW,304,22.0,31.0,72,0.00,,,0.00,142.000000,,2013-11-25 19:42:00,
2013-11-25 13:52:00,32.0,24.0,-100.00,NW,304,22.0,31.0,72,0.00,,,0.00,142.000000,,2013-11-25 19:52:00,
2013-11-25 14:22:00,33.0,23.0,-100.00,NW,307,22.0,30.0,66,0.00,,,0.00,143.000000,,2013-11-25 20:22:00,
2013-11-25 14:32:00,33.0,23.0,-100.00,NW,307,22.0,30.0,66,0.00,,,0.00,143.000000,,2013-11-25 20:32:00,
2013-11-25 14:42:00,33.0,23.0,-100.00,NW,307,22.0,30.0,66,0.00,,,0.00,143.000000,,2013-11-25 20:42:00,
2013-11-25 14:52:00,33.0,23.0,-100.00,NW,307,22.0,30.0,66,0.00,,,0.00,143.000000,,2013-11-25 20:52:00,
2013-11-25 15:22:00,31.0,21.0,-100.00,NW,320,22.0,29.0,67,0.00,,,0.00,93.000000,,2013-11-25 21:22:00,
2013-11-25 15:33:00,31.0,21.0,-100.00,NW,320,22.0,29.0,67,0.00,,,0.00,93.000000,,2013-11-25 21:33:00,
2013-11-25 15:44:00,31.0,21.0,-100.00,NW,320,22.0,29.0,67,0.00,,,0.00,93.000000,,2013-11-25 21:44:00,
2013-11-25 15:53:00,31.0,21.0,-100.00,NW,320,22.0,29.0,67,0.00,,,0.00,93.000000,,2013-11-25 21:53:00,
2013-11-25 16:23:00,30.0,22.0,-100.00,NW,322,20.0,30.0,71,0.00,,,0.00,33.000000,,2013-11-25 22:23:00,
2013-11-25 16:33:00,30.0,22.0,-100.00,NW,322,20.0,30.0,71,0.00,,,0.00,33.000000,,2013-11-25 22:33:00,
2013-11-25 16:43:00,30.0,22.0,-100.00,NW,322,20.0,30.0,71,0.00,,,0.00,33.000000,,2013-11-25 22:43:00,
2013-11-25 16:52:00,30.0,22.0,-100.00,NW,322,20.0,30.0,71,0.00,,,0.00,33.000000,,2013-11-25 22:52:00,
2013-11-25 17:22:00,30.0,23.0,-100.00,NW,325,20.0,27.0,75,0.00,,,0.00,8.000000,,2013-11-25 23:22:00,
2013-11-25 17:33:00,30.0,23.0,-100.00,NW,325,20.0,27.0,75,0.00,,,0.00,8.000000,,2013-11-25 23:33:00,
2013-11-25 17:42:00,30.0,23.0,-100.00,NW,325,20.0,27.0,75,0.00,,,0.00,8.000000,,2013-11-25 23:42:00,
2013-11-25 17:52:00,30.0,23.0,-100.00,NW,325,20.0,27.0,75,0.00,,,0.00,8.000000,,2013-11-25 23:52:00,
2013-11-25 18:22:00,28.0,22.0,-100.00,NNW,329,21.0,28.0,78,0.00,,,0.00,5.000000,,2013-11-26 00:22:00,
2013-11-25 18:32:00,28.0,22.0,-100.00,NNW,329,21.0,28.0,78,0.00,,,0.00,5.000000,,2013-11-26 00:32:00,
2013-11-25 18:42:00,28.0,22.0,-100.00,NNW,329,21.0,28.0,78,0.00,,,0.00,5.000000,,2013-11-26 00:42:00,
2013-11-25 18:52:00,28.0,22.0,-100.00,NNW,329,21.0,28.0,78,0.00,,,0.00,5.000000,,2013-11-26 00:52:00,
2013-11-25 19:21:00,27.0,22.0,-100.00,NNW,330,13.0,29.0,80,0.00,,,0.00,5.000000,,2013-11-26 01:21:00,
2013-11-25 19:32:00,27.0,22.0,-100.00,NNW,330,13.0,29.0,80,0.00,,,0.00,5.000000,,2013-11-26 01:32:00,
2013-11-25 19:42:00,27.0,22.0,-100.00,NNW,330,13.0,29.0,80,0.00,,,0.00,5.000000,,2013-11-26 01:42:00,
2013-11-25 19:52:00,27.0,22.0,-100.00,NNW,330,13.0,29.0,80,0.00,,,0.00,5.000000,,2013-11-26 01:52:00,
2013-11-25 20:22:00,27.0,24.0,-100.00,NNW,328,18.0,23.0,87,0.00,,,0.00,2.000000,,2013-11-26 02:22:00,
2013-11-25 20:32:00,27.0,24.0,-100.00,NNW,328,18.0,23.0,87,0.00,,,0.00,2.000000,,2013-11-26 02:32:00,
2013-11-25 20:42:00,27.0,24.0,-100.00,NNW,328,18.0,23.0,87,0.00,,,0.00,2.000000,,2013-11-26 02:42:00,
2013-11-25 20:52:00,27.0,24.0,-100.00,NNW,328,18.0,23.0,87,0.00,,,0.00,2.000000,,2013-11-26 02:52:00,
2013-11-25 21:22:00,25.0,21.0,-100.00,NNW,334,19.0,29.0,86,0.00,,,0.00,0.000000,,2013-11-26 03:22:00,
2013-11-25 21:33:00,25.0,21.0,-100.00,NNW,334,19.0,29.0,86,0.00,,,0.00,0.000000,,2013-11-26 03:33:00,
2013-11-25 21:44:00,25.0,21.0,-100.00,NNW,334,19.0,29.0,86,0.00,,,0.00,0.000000,,2013-11-26 03:44:00,
2013-11-25 21:53:00,25.0,21.0,-100.00,NNW,334,19.0,29.0,86,0.00,,,0.00,0.000000,,2013-11-26 03:53:00,
2013-11-25 22:23:00,24.0,22.0,-100.00,NNW,345,18.0,27.0,91,0.00,,,0.00,0.000000,,2013-11-26 04:23:00,
2013-11-25 22:34:00,24.0,22.0,-100.00,NNW,345,18.0,27.0,91,0.00,,,0.00,0.000000,,2013-11-26 04:34:00,
2013-11-25 22:43:00,24.0,22.0,-100.00,NNW,345,18.0,27.0,91,0.00,,,0.00,0.000000,,2013-11-26 04:43:00,
2013-11-25 22:53:00,24.0,22.0,-100.00,NNW,345,18.0,27.0,91,0.00,,,0.00,0.000000,,2013-11-26 04:53:00,
2013-11-25 23:23:00,23.0,22.0,-100.00,NNW,340,16.0,26.0,94,0.00,,,0.00,0.000000,,2013-11-26 05:23:00,
2013-11-25 23:34:00,23.0,22.0,-100.00,NNW,340,16.0,26.0,94,0.00,,,0.00,0.000000,,2013-11-26 05:34:00,
2013-11-25 23:43:00,23.0,22.0,-100.00,NNW,340,16.0,26.0,94,0.00,,,0.00,0.000000,,2013-11-26 05:43:00,
2013-11-25 23:53:00,23.0,22.0,-100.00,NNW,340,16.0,26.0,94,0.00,,,0.00,0.000000,,2013-11-26 05:53:00,